sensor_id;sensor_type;location;lat;lon;timestamp;P1;P2;P0
71872;PMS5003;59745;52.924;-2.388;2022-07-30T00:03:01;28;23;
71872;PMS5003;59745;52.924;-2.388;2022-07-30T00:05:25;27;27;
71872;PMS5003;59745;52.924;-2.388;2022-07-30T00:07:51;28;26;
71872;PMS5003;59745;52.924;-2.388;2022-07-30T00:10:16;25;22;
71872;PMS5003;59745;52.924;-2.388;2022-07-30T00:12:41;24;23;
71872;PMS5003;59745;52.924;-2.388;2022-07-30T00:15:07;26;26;
71872;PMS5003;59745;52.924;-2.388;2022-07-30T00:17:31;23;23;
71872;PMS5003;59745;52.924;-2.388;2022-07-30T00:19:56;19;19;
71872;PMS5003;59745;52.924;-2.388;2022-07-30T00:22:22;24;24;
71872;PMS5003;59745;52.924;-2.388;2022-07-30T00:24:48;23;22;
71872;PMS5003;59745;52.924;-2.388;2022-07-30T00:27:13;24;24;
71872;PMS5003;59745;52.924;-2.388;2022-07-30T00:29:38;24;24;
71872;PMS5003;59745;52.924;-2.388;2022-07-30T00:32:04;21;19;
71872;PMS5003;59745;52.924;-2.388;2022-07-30T00:34:30;24;23;
71872;PMS5003;59745;52.924;-2.388;2022-07-30T00:36:55;23;21;
71872;PMS5003;59745;52.924;-2.388;2022-07-30T00:39:20;16;16;
71872;PMS5003;59745;52.924;-2.388;2022-07-30T00:41:52;20;19;
71872;PMS5003;59745;52.924;-2.388;2022-07-30T00:44:11;19;18;
71872;PMS5003;59745;52.924;-2.388;2022-07-30T00:46:36;20;20;
71872;PMS5003;59745;52.924;-2.388;2022-07-30T00:49:01;20;19;
71872;PMS5003;59745;52.924;-2.388;2022-07-30T00:51:26;17;17;
71872;PMS5003;59745;52.924;-2.388;2022-07-30T00:53:52;15;14;
71872;PMS5003;59745;52.924;-2.388;2022-07-30T00:56:17;16;15;
71872;PMS5003;59745;52.924;-2.388;2022-07-30T00:58:42;14;14;
71872;PMS5003;59745;52.924;-2.388;2022-07-30T01:01:07;12;11;
71872;PMS5003;59745;52.924;-2.388;2022-07-30T01:03:32;12;11;
71872;PMS5003;59745;52.924;-2.388;2022-07-30T01:05:58;10;10;
71872;PMS5003;59745;52.924;-2.388;2022-07-30T01:08:23;13;12;
71872;PMS5003;59745;52.924;-2.388;2022-07-30T01:10:48;12;12;
71872;PMS5003;59745;52.924;-2.388;2022-07-30T01:13:13;11;11;
71872;PMS5003;59745;52.924;-2.388;2022-07-30T01:15:39;9;9;
71872;PMS5003;59745;52.924;-2.388;2022-07-30T01:18:05;13;12;
71872;PMS5003;59745;52.924;-2.388;2022-07-30T01:20:30;12;11;
71872;PMS5003;59745;52.924;-2.388;2022-07-30T01:22:58;15;14;
71872;PMS5003;59745;52.924;-2.388;2022-07-30T01:25:21;12;11;
71872;PMS5003;59745;52.924;-2.388;2022-07-30T01:27:46;11;10;
71872;PMS5003;59745;52.924;-2.388;2022-07-30T01:30:10;13;12;
71872;PMS5003;59745;52.924;-2.388;2022-07-30T01:32:35;10;10;
71872;PMS5003;59745;52.924;-2.388;2022-07-30T01:35:00;12;11;
71872;PMS5003;59745;52.924;-2.388;2022-07-30T01:37:25;11;11;
71872;PMS5003;59745;52.924;-2.388;2022-07-30T01:39:50;9;8;
71872;PMS5003;59745;52.924;-2.388;2022-07-30T01:42:15;11;10;
71872;PMS5003;59745;52.924;-2.388;2022-07-30T01:44:40;8;8;
71872;PMS5003;59745;52.924;-2.388;2022-07-30T01:47:06;12;12;
71872;PMS5003;59745;52.924;-2.388;2022-07-30T01:49:31;7;7;
71872;PMS5003;59745;52.924;-2.388;2022-07-30T01:51:56;11;10;
71872;PMS5003;59745;52.924;-2.388;2022-07-30T01:54:22;10;10;
71872;PMS5003;59745;52.924;-2.388;2022-07-30T01:56:46;9;9;
71872;PMS5003;59745;52.924;-2.388;2022-07-30T01:59:11;9;8;
71872;PMS5003;59745;52.924;-2.388;2022-07-30T02:01:36;10;10;
71872;PMS5003;59745;52.924;-2.388;2022-07-30T02:04:01;12;11;
71872;PMS5003;59745;52.924;-2.388;2022-07-30T02:06:28;7;7;
71872;PMS5003;59745;52.924;-2.388;2022-07-30T02:08:53;10;10;
71872;PMS5003;59745;52.924;-2.388;2022-07-30T02:11:17;9;9;
71872;PMS5003;59745;52.924;-2.388;2022-07-30T02:13:43;8;8;
71872;PMS5003;59745;52.924;-2.388;2022-07-30T02:16:08;10;10;
71872;PMS5003;59745;52.924;-2.388;2022-07-30T02:18:35;9;9;
71872;PMS5003;59745;52.924;-2.388;2022-07-30T02:20:59;7;7;
71872;PMS5003;59745;52.924;-2.388;2022-07-30T02:23:22;7;6;
71872;PMS5003;59745;52.924;-2.388;2022-07-30T02:25:48;10;9;
71872;PMS5003;59745;52.924;-2.388;2022-07-30T02:28:13;6;6;
71872;PMS5003;59745;52.924;-2.388;2022-07-30T02:30:39;6;6;
71872;PMS5003;59745;52.924;-2.388;2022-07-30T02:33:04;8;7;
71872;PMS5003;59745;52.924;-2.388;2022-07-30T02:35:28;8;7;
71872;PMS5003;59745;52.924;-2.388;2022-07-30T02:37:53;6;6;
71872;PMS5003;59745;52.924;-2.388;2022-07-30T02:40:19;9;9;
71872;PMS5003;59745;52.924;-2.388;2022-07-30T02:42:44;11;10;
71872;PMS5003;59745;52.924;-2.388;2022-07-30T02:45:09;10;10;
71872;PMS5003;59745;52.924;-2.388;2022-07-30T02:47:34;10;10;
71872;PMS5003;59745;52.924;-2.388;2022-07-30T02:49:59;9;9;
71872;PMS5003;59745;52.924;-2.388;2022-07-30T02:52:25;11;11;
71872;PMS5003;59745;52.924;-2.388;2022-07-30T02:54:50;11;10;
71872;PMS5003;59745;52.924;-2.388;2022-07-30T02:57:15;11;11;
71872;PMS5003;59745;52.924;-2.388;2022-07-30T02:59:40;10;10;
71872;PMS5003;59745;52.924;-2.388;2022-07-30T03:02:05;10;9;
71872;PMS5003;59745;52.924;-2.388;2022-07-30T03:04:30;10;10;
71872;PMS5003;59745;52.924;-2.388;2022-07-30T03:06:55;12;11;
71872;PMS5003;59745;52.924;-2.388;2022-07-30T03:09:20;9;9;
71872;PMS5003;59745;52.924;-2.388;2022-07-30T03:11:46;11;10;
71872;PMS5003;59745;52.924;-2.388;2022-07-30T03:14:11;10;10;
71872;PMS5003;59745;52.924;-2.388;2022-07-30T03:16:36;9;9;
71872;PMS5003;59745;52.924;-2.388;2022-07-30T03:19:01;10;10;
71872;PMS5003;59745;52.924;-2.388;2022-07-30T03:21:26;14;10;
71872;PMS5003;59745;52.924;-2.388;2022-07-30T03:23:51;11;10;
71872;PMS5003;59745;52.924;-2.388;2022-07-30T03:26:16;9;9;
71872;PMS5003;59745;52.924;-2.388;2022-07-30T03:28:41;10;9;
71872;PMS5003;59745;52.924;-2.388;2022-07-30T03:31:06;9;9;
71872;PMS5003;59745;52.924;-2.388;2022-07-30T03:33:32;16;15;
71872;PMS5003;59745;52.924;-2.388;2022-07-30T03:35:57;9;9;
71872;PMS5003;59745;52.924;-2.388;2022-07-30T03:38:22;11;10;
71872;PMS5003;59745;52.924;-2.388;2022-07-30T03:40:48;8;8;
71872;PMS5003;59745;52.924;-2.388;2022-07-30T03:43:13;15;13;
71872;PMS5003;59745;52.924;-2.388;2022-07-30T03:45:39;12;11;
71872;PMS5003;59745;52.924;-2.388;2022-07-30T03:48:04;10;9;
71872;PMS5003;59745;52.924;-2.388;2022-07-30T03:50:29;7;7;
71872;PMS5003;59745;52.924;-2.388;2022-07-30T03:52:54;9;9;
71872;PMS5003;59745;52.924;-2.388;2022-07-30T03:55:19;6;6;
71872;PMS5003;59745;52.924;-2.388;2022-07-30T03:57:45;10;10;
71872;PMS5003;59745;52.924;-2.388;2022-07-30T04:00:15;8;7;
71872;PMS5003;59745;52.924;-2.388;2022-07-30T04:02:39;9;8;
71872;PMS5003;59745;52.924;-2.388;2022-07-30T04:05:00;8;8;
71872;PMS5003;59745;52.924;-2.388;2022-07-30T04:07:25;7;7;
71872;PMS5003;59745;52.924;-2.388;2022-07-30T04:09:50;8;7;
71872;PMS5003;59745;52.924;-2.388;2022-07-30T04:12:16;8;7;
71872;PMS5003;59745;52.924;-2.388;2022-07-30T04:14:42;6;6;
71872;PMS5003;59745;52.924;-2.388;2022-07-30T04:17:07;7;7;
71872;PMS5003;59745;52.924;-2.388;2022-07-30T04:19:33;10;10;
71872;PMS5003;59745;52.924;-2.388;2022-07-30T04:21:56;7;6;
71872;PMS5003;59745;52.924;-2.388;2022-07-30T04:24:21;8;8;
71872;PMS5003;59745;52.924;-2.388;2022-07-30T04:26:47;6;6;
71872;PMS5003;59745;52.924;-2.388;2022-07-30T04:29:12;6;6;
71872;PMS5003;59745;52.924;-2.388;2022-07-30T04:31:37;8;7;
71872;PMS5003;59745;52.924;-2.388;2022-07-30T04:34:03;8;8;
71872;PMS5003;59745;52.924;-2.388;2022-07-30T04:36:28;8;8;
71872;PMS5003;59745;52.924;-2.388;2022-07-30T04:38:53;7;6;
71872;PMS5003;59745;52.924;-2.388;2022-07-30T04:41:18;9;8;
71872;PMS5003;59745;52.924;-2.388;2022-07-30T04:43:43;6;6;
71872;PMS5003;59745;52.924;-2.388;2022-07-30T04:46:08;6;6;
71872;PMS5003;59745;52.924;-2.388;2022-07-30T04:48:33;8;8;
71872;PMS5003;59745;52.924;-2.388;2022-07-30T04:50:59;9;7;
71872;PMS5003;59745;52.924;-2.388;2022-07-30T04:53:24;6;6;
71872;PMS5003;59745;52.924;-2.388;2022-07-30T04:55:48;7;7;
71872;PMS5003;59745;52.924;-2.388;2022-07-30T04:58:16;6;6;
71872;PMS5003;59745;52.924;-2.388;2022-07-30T05:00:39;7;7;
71872;PMS5003;59745;52.924;-2.388;2022-07-30T05:03:05;9;8;
71872;PMS5003;59745;52.924;-2.388;2022-07-30T05:05:30;8;8;
71872;PMS5003;59745;52.924;-2.388;2022-07-30T05:07:55;9;7;
71872;PMS5003;59745;52.924;-2.388;2022-07-30T05:10:20;8;8;
71872;PMS5003;59745;52.924;-2.388;2022-07-30T05:12:46;7;7;
71872;PMS5003;59745;52.924;-2.388;2022-07-30T05:15:11;9;7;
71872;PMS5003;59745;52.924;-2.388;2022-07-30T05:17:36;9;8;
71872;PMS5003;59745;52.924;-2.388;2022-07-30T05:20:01;9;9;
71872;PMS5003;59745;52.924;-2.388;2022-07-30T05:22:26;8;8;
71872;PMS5003;59745;52.924;-2.388;2022-07-30T05:24:51;8;8;
71872;PMS5003;59745;52.924;-2.388;2022-07-30T05:27:16;7;7;
71872;PMS5003;59745;52.924;-2.388;2022-07-30T05:29:41;9;7;
71872;PMS5003;59745;52.924;-2.388;2022-07-30T05:32:07;9;8;
71872;PMS5003;59745;52.924;-2.388;2022-07-30T05:34:32;7;7;
71872;PMS5003;59745;52.924;-2.388;2022-07-30T05:36:57;10;10;
71872;PMS5003;59745;52.924;-2.388;2022-07-30T05:39:22;9;8;
71872;PMS5003;59745;52.924;-2.388;2022-07-30T05:41:47;9;8;
71872;PMS5003;59745;52.924;-2.388;2022-07-30T05:44:12;7;7;
71872;PMS5003;59745;52.924;-2.388;2022-07-30T05:46:37;10;10;
71872;PMS5003;59745;52.924;-2.388;2022-07-30T05:49:02;7;7;
71872;PMS5003;59745;52.924;-2.388;2022-07-30T05:51:27;8;7;
71872;PMS5003;59745;52.924;-2.388;2022-07-30T05:53:53;8;8;
71872;PMS5003;59745;52.924;-2.388;2022-07-30T05:56:18;7;7;
71872;PMS5003;59745;52.924;-2.388;2022-07-30T05:58:43;8;8;
71872;PMS5003;59745;52.924;-2.388;2022-07-30T06:01:08;9;9;
71872;PMS5003;59745;52.924;-2.388;2022-07-30T06:03:33;6;6;
71872;PMS5003;59745;52.924;-2.388;2022-07-30T06:05:58;9;9;
71872;PMS5003;59745;52.924;-2.388;2022-07-30T06:08:24;10;10;
71872;PMS5003;59745;52.924;-2.388;2022-07-30T06:10:49;6;6;
71872;PMS5003;59745;52.924;-2.388;2022-07-30T06:13:14;9;9;
71872;PMS5003;59745;52.924;-2.388;2022-07-30T06:15:39;11;11;
71872;PMS5003;59745;52.924;-2.388;2022-07-30T06:18:04;9;8;
71872;PMS5003;59745;52.924;-2.388;2022-07-30T06:20:30;9;9;
71872;PMS5003;59745;52.924;-2.388;2022-07-30T06:22:55;11;11;
71872;PMS5003;59745;52.924;-2.388;2022-07-30T06:25:20;8;7;
71872;PMS5003;59745;52.924;-2.388;2022-07-30T06:27:45;11;9;
71872;PMS5003;59745;52.924;-2.388;2022-07-30T06:30:10;10;9;
71872;PMS5003;59745;52.924;-2.388;2022-07-30T06:32:35;9;6;
71872;PMS5003;59745;52.924;-2.388;2022-07-30T06:35:00;10;9;
71872;PMS5003;59745;52.924;-2.388;2022-07-30T06:37:25;8;8;
71872;PMS5003;59745;52.924;-2.388;2022-07-30T06:39:51;12;10;
71872;PMS5003;59745;52.924;-2.388;2022-07-30T06:42:16;8;8;
71872;PMS5003;59745;52.924;-2.388;2022-07-30T06:44:41;9;8;
71872;PMS5003;59745;52.924;-2.388;2022-07-30T06:47:06;8;8;
71872;PMS5003;59745;52.924;-2.388;2022-07-30T06:49:31;8;8;
71872;PMS5003;59745;52.924;-2.388;2022-07-30T06:51:56;7;7;
71872;PMS5003;59745;52.924;-2.388;2022-07-30T06:54:21;6;6;
71872;PMS5003;59745;52.924;-2.388;2022-07-30T06:56:46;8;8;
71872;PMS5003;59745;52.924;-2.388;2022-07-30T06:59:12;6;6;
71872;PMS5003;59745;52.924;-2.388;2022-07-30T07:01:37;11;10;
71872;PMS5003;59745;52.924;-2.388;2022-07-30T07:04:02;7;7;
71872;PMS5003;59745;52.924;-2.388;2022-07-30T07:06:27;6;6;
71872;PMS5003;59745;52.924;-2.388;2022-07-30T07:08:52;6;6;
71872;PMS5003;59745;52.924;-2.388;2022-07-30T07:11:17;5;5;
71872;PMS5003;59745;52.924;-2.388;2022-07-30T07:13:42;7;7;
71872;PMS5003;59745;52.924;-2.388;2022-07-30T07:16:07;6;6;
71872;PMS5003;59745;52.924;-2.388;2022-07-30T07:18:33;8;7;
71872;PMS5003;59745;52.924;-2.388;2022-07-30T07:20:58;8;7;
71872;PMS5003;59745;52.924;-2.388;2022-07-30T07:23:23;8;8;
71872;PMS5003;59745;52.924;-2.388;2022-07-30T07:25:48;7;6;
71872;PMS5003;59745;52.924;-2.388;2022-07-30T07:28:13;8;8;
71872;PMS5003;59745;52.924;-2.388;2022-07-30T07:30:38;6;6;
71872;PMS5003;59745;52.924;-2.388;2022-07-30T07:33:03;6;6;
71872;PMS5003;59745;52.924;-2.388;2022-07-30T07:35:28;5;5;
71872;PMS5003;59745;52.924;-2.388;2022-07-30T07:37:53;7;6;
71872;PMS5003;59745;52.924;-2.388;2022-07-30T07:40:19;6;6;
71872;PMS5003;59745;52.924;-2.388;2022-07-30T07:42:44;7;7;
71872;PMS5003;59745;52.924;-2.388;2022-07-30T07:45:09;7;7;
71872;PMS5003;59745;52.924;-2.388;2022-07-30T07:49:59;5;5;
71872;PMS5003;59745;52.924;-2.388;2022-07-30T07:52:24;6;6;
71872;PMS5003;59745;52.924;-2.388;2022-07-30T07:54:49;6;5;
71872;PMS5003;59745;52.924;-2.388;2022-07-30T07:57:14;6;6;
71872;PMS5003;59745;52.924;-2.388;2022-07-30T07:59:39;6;6;
71872;PMS5003;59745;52.924;-2.388;2022-07-30T08:02:04;5;5;
71872;PMS5003;59745;52.924;-2.388;2022-07-30T08:04:30;4;4;
71872;PMS5003;59745;52.924;-2.388;2022-07-30T08:06:55;5;5;
71872;PMS5003;59745;52.924;-2.388;2022-07-30T08:09:20;5;5;
71872;PMS5003;59745;52.924;-2.388;2022-07-30T08:11:45;6;5;
71872;PMS5003;59745;52.924;-2.388;2022-07-30T08:14:10;5;5;
71872;PMS5003;59745;52.924;-2.388;2022-07-30T08:16:36;5;5;
71872;PMS5003;59745;52.924;-2.388;2022-07-30T08:19:00;4;4;
71872;PMS5003;59745;52.924;-2.388;2022-07-30T08:21:25;6;6;
71872;PMS5003;59745;52.924;-2.388;2022-07-30T08:23:50;5;5;
71872;PMS5003;59745;52.924;-2.388;2022-07-30T08:26:15;2;2;
71872;PMS5003;59745;52.924;-2.388;2022-07-30T08:28:40;5;5;
71872;PMS5003;59745;52.924;-2.388;2022-07-30T08:31:06;4;4;
71872;PMS5003;59745;52.924;-2.388;2022-07-30T08:33:31;4;4;
71872;PMS5003;59745;52.924;-2.388;2022-07-30T08:35:56;6;5;
71872;PMS5003;59745;52.924;-2.388;2022-07-30T08:38:21;5;5;
71872;PMS5003;59745;52.924;-2.388;2022-07-30T08:40:46;3;3;
71872;PMS5003;59745;52.924;-2.388;2022-07-30T08:43:11;5;4;
71872;PMS5003;59745;52.924;-2.388;2022-07-30T08:45:36;5;4;
71872;PMS5003;59745;52.924;-2.388;2022-07-30T08:48:01;3;3;
71872;PMS5003;59745;52.924;-2.388;2022-07-30T08:50:27;3;3;
71872;PMS5003;59745;52.924;-2.388;2022-07-30T08:52:51;4;4;
71872;PMS5003;59745;52.924;-2.388;2022-07-30T08:55:16;6;5;
71872;PMS5003;59745;52.924;-2.388;2022-07-30T08:57:41;4;4;
71872;PMS5003;59745;52.924;-2.388;2022-07-30T09:00:07;3;3;
71872;PMS5003;59745;52.924;-2.388;2022-07-30T09:02:32;4;4;
71872;PMS5003;59745;52.924;-2.388;2022-07-30T09:04:57;4;4;
71872;PMS5003;59745;52.924;-2.388;2022-07-30T09:07:22;5;5;
71872;PMS5003;59745;52.924;-2.388;2022-07-30T09:09:47;3;3;
71872;PMS5003;59745;52.924;-2.388;2022-07-30T09:14:37;8;5;
71872;PMS5003;59745;52.924;-2.388;2022-07-30T09:17:02;3;3;
71872;PMS5003;59745;52.924;-2.388;2022-07-30T09:19:27;2;2;
71872;PMS5003;59745;52.924;-2.388;2022-07-30T09:21:54;5;5;
71872;PMS5003;59745;52.924;-2.388;2022-07-30T09:24:17;1;1;
71872;PMS5003;59745;52.924;-2.388;2022-07-30T09:26:51;1;1;
71872;PMS5003;59745;52.924;-2.388;2022-07-30T09:29:14;0;0;
71872;PMS5003;59745;52.924;-2.388;2022-07-30T09:31:33;2;1;
71872;PMS5003;59745;52.924;-2.388;2022-07-30T09:33:57;1;1;
71872;PMS5003;59745;52.924;-2.388;2022-07-30T09:36:22;3;1;
71872;PMS5003;59745;52.924;-2.388;2022-07-30T09:38:48;2;2;
71872;PMS5003;59745;52.924;-2.388;2022-07-30T09:41:13;1;1;
71872;PMS5003;59745;52.924;-2.388;2022-07-30T09:43:44;0;0;
71872;PMS5003;59745;52.924;-2.388;2022-07-30T09:46:03;1;1;
71872;PMS5003;59745;52.924;-2.388;2022-07-30T09:48:28;0;0;
71872;PMS5003;59745;52.924;-2.388;2022-07-30T09:50:53;0;0;
71872;PMS5003;59745;52.924;-2.388;2022-07-30T09:53:18;0;0;
71872;PMS5003;59745;52.924;-2.388;2022-07-30T09:55:43;0;0;
71872;PMS5003;59745;52.924;-2.388;2022-07-30T09:58:08;1;1;
71872;PMS5003;59745;52.924;-2.388;2022-07-30T10:00:34;0;0;
71872;PMS5003;59745;52.924;-2.388;2022-07-30T10:02:58;0;0;
71872;PMS5003;59745;52.924;-2.388;2022-07-30T10:05:23;1;1;
71872;PMS5003;59745;52.924;-2.388;2022-07-30T10:07:49;0;0;
71872;PMS5003;59745;52.924;-2.388;2022-07-30T10:10:13;0;0;
71872;PMS5003;59745;52.924;-2.388;2022-07-30T10:12:38;0;0;
71872;PMS5003;59745;52.924;-2.388;2022-07-30T10:15:04;0;0;
71872;PMS5003;59745;52.924;-2.388;2022-07-30T10:17:28;0;0;
71872;PMS5003;59745;52.924;-2.388;2022-07-30T10:19:53;0;0;
71872;PMS5003;59745;52.924;-2.388;2022-07-30T10:22:18;0;0;
71872;PMS5003;59745;52.924;-2.388;2022-07-30T10:24:44;1;0;
71872;PMS5003;59745;52.924;-2.388;2022-07-30T10:27:09;0;0;
71872;PMS5003;59745;52.924;-2.388;2022-07-30T10:29:34;0;0;
71872;PMS5003;59745;52.924;-2.388;2022-07-30T10:31:59;0;0;
71872;PMS5003;59745;52.924;-2.388;2022-07-30T10:34:24;1;0;
71872;PMS5003;59745;52.924;-2.388;2022-07-30T10:36:49;0;0;
71872;PMS5003;59745;52.924;-2.388;2022-07-30T10:39:15;0;0;
71872;PMS5003;59745;52.924;-2.388;2022-07-30T10:41:41;0;0;
71872;PMS5003;59745;52.924;-2.388;2022-07-30T10:44:11;1;1;
71872;PMS5003;59745;52.924;-2.388;2022-07-30T10:46:35;0;0;
71872;PMS5003;59745;52.924;-2.388;2022-07-30T10:51:20;0;0;
71872;PMS5003;59745;52.924;-2.388;2022-07-30T10:53:45;1;1;
71872;PMS5003;59745;52.924;-2.388;2022-07-30T10:56:11;0;0;
71872;PMS5003;59745;52.924;-2.388;2022-07-30T11:01:00;1;1;
71872;PMS5003;59745;52.924;-2.388;2022-07-30T11:03:25;1;0;
71872;PMS5003;59745;52.924;-2.388;2022-07-30T11:05:51;1;1;
71872;PMS5003;59745;52.924;-2.388;2022-07-30T11:10:40;1;1;
71872;PMS5003;59745;52.924;-2.388;2022-07-30T11:13:06;1;1;
71872;PMS5003;59745;52.924;-2.388;2022-07-30T11:17:57;1;0;
71872;PMS5003;59745;52.924;-2.388;2022-07-30T11:20:20;1;1;
71872;PMS5003;59745;52.924;-2.388;2022-07-30T11:22:45;0;0;
71872;PMS5003;59745;52.924;-2.388;2022-07-30T11:25:37;1;1;
71872;PMS5003;59745;52.924;-2.388;2022-07-30T11:27:36;2;2;
71872;PMS5003;59745;52.924;-2.388;2022-07-30T11:30:00;1;1;
71872;PMS5003;59745;52.924;-2.388;2022-07-30T11:32:26;1;1;
71872;PMS5003;59745;52.924;-2.388;2022-07-30T11:34:50;2;2;
71872;PMS5003;59745;52.924;-2.388;2022-07-30T11:37:15;3;2;
71872;PMS5003;59745;52.924;-2.388;2022-07-30T11:44:31;3;2;
71872;PMS5003;59745;52.924;-2.388;2022-07-30T11:46:56;3;3;
71872;PMS5003;59745;52.924;-2.388;2022-07-30T11:49:21;2;2;
71872;PMS5003;59745;52.924;-2.388;2022-07-30T11:51:47;3;3;
71872;PMS5003;59745;52.924;-2.388;2022-07-30T11:54:11;2;2;
71872;PMS5003;59745;52.924;-2.388;2022-07-30T11:56:36;3;3;
71872;PMS5003;59745;52.924;-2.388;2022-07-30T11:59:01;2;2;
71872;PMS5003;59745;52.924;-2.388;2022-07-30T12:01:26;1;1;
71872;PMS5003;59745;52.924;-2.388;2022-07-30T12:03:51;2;2;
71872;PMS5003;59745;52.924;-2.388;2022-07-30T12:06:16;3;3;
71872;PMS5003;59745;52.924;-2.388;2022-07-30T12:08:42;3;2;
71872;PMS5003;59745;52.924;-2.388;2022-07-30T12:11:06;3;3;
71872;PMS5003;59745;52.924;-2.388;2022-07-30T12:13:31;2;2;
71872;PMS5003;59745;52.924;-2.388;2022-07-30T12:15:56;3;3;
71872;PMS5003;59745;52.924;-2.388;2022-07-30T12:18:22;3;3;
71872;PMS5003;59745;52.924;-2.388;2022-07-30T12:20:51;3;3;
71872;PMS5003;59745;52.924;-2.388;2022-07-30T12:23:12;3;3;
71872;PMS5003;59745;52.924;-2.388;2022-07-30T12:25:37;2;2;
71872;PMS5003;59745;52.924;-2.388;2022-07-30T12:28:02;3;3;
71872;PMS5003;59745;52.924;-2.388;2022-07-30T12:30:27;3;3;
71872;PMS5003;59745;52.924;-2.388;2022-07-30T12:32:52;3;3;
71872;PMS5003;59745;52.924;-2.388;2022-07-30T12:35:17;6;4;
71872;PMS5003;59745;52.924;-2.388;2022-07-30T12:37:43;3;3;
71872;PMS5003;59745;52.924;-2.388;2022-07-30T12:40:08;3;2;
71872;PMS5003;59745;52.924;-2.388;2022-07-30T12:42:32;4;4;
71872;PMS5003;59745;52.924;-2.388;2022-07-30T12:44:57;4;4;
71872;PMS5003;59745;52.924;-2.388;2022-07-30T12:47:22;3;3;
71872;PMS5003;59745;52.924;-2.388;2022-07-30T12:49:48;3;3;
71872;PMS5003;59745;52.924;-2.388;2022-07-30T12:54:37;4;4;
71872;PMS5003;59745;52.924;-2.388;2022-07-30T12:57:03;5;4;
71872;PMS5003;59745;52.924;-2.388;2022-07-30T12:59:28;4;4;
71872;PMS5003;59745;52.924;-2.388;2022-07-30T13:01:52;3;3;
71872;PMS5003;59745;52.924;-2.388;2022-07-30T13:04:18;4;4;
71872;PMS5003;59745;52.924;-2.388;2022-07-30T13:06:42;6;5;
71872;PMS5003;59745;52.924;-2.388;2022-07-30T13:11:36;3;3;
71872;PMS5003;59745;52.924;-2.388;2022-07-30T13:13:58;6;6;
71872;PMS5003;59745;52.924;-2.388;2022-07-30T13:16:23;3;3;
71872;PMS5003;59745;52.924;-2.388;2022-07-30T13:18:48;4;4;
71872;PMS5003;59745;52.924;-2.388;2022-07-30T13:21:13;7;6;
71872;PMS5003;59745;52.924;-2.388;2022-07-30T13:23:38;7;6;
71872;PMS5003;59745;52.924;-2.388;2022-07-30T13:26:03;7;7;
71872;PMS5003;59745;52.924;-2.388;2022-07-30T13:28:28;3;3;
71872;PMS5003;59745;52.924;-2.388;2022-07-30T13:30:54;5;5;
71872;PMS5003;59745;52.924;-2.388;2022-07-30T13:33:18;6;6;
71872;PMS5003;59745;52.924;-2.388;2022-07-30T13:35:43;5;4;
71872;PMS5003;59745;52.924;-2.388;2022-07-30T13:38:08;5;5;
71872;PMS5003;59745;52.924;-2.388;2022-07-30T13:40:33;2;2;
71872;PMS5003;59745;52.924;-2.388;2022-07-30T13:42:58;5;4;
71872;PMS5003;59745;52.924;-2.388;2022-07-30T13:45:23;5;5;
71872;PMS5003;59745;52.924;-2.388;2022-07-30T13:47:48;3;3;
71872;PMS5003;59745;52.924;-2.388;2022-07-30T13:50:14;3;3;
71872;PMS5003;59745;52.924;-2.388;2022-07-30T13:52:38;4;4;
71872;PMS5003;59745;52.924;-2.388;2022-07-30T13:55:04;5;5;
71872;PMS5003;59745;52.924;-2.388;2022-07-30T13:57:28;5;5;
71872;PMS5003;59745;52.924;-2.388;2022-07-30T13:59:53;6;5;
71872;PMS5003;59745;52.924;-2.388;2022-07-30T14:02:18;9;6;
71872;PMS5003;59745;52.924;-2.388;2022-07-30T14:04:43;6;6;
71872;PMS5003;59745;52.924;-2.388;2022-07-30T14:07:08;3;3;
71872;PMS5003;59745;52.924;-2.388;2022-07-30T14:09:34;5;5;
71872;PMS5003;59745;52.924;-2.388;2022-07-30T14:11:59;4;3;
71872;PMS5003;59745;52.924;-2.388;2022-07-30T14:14:24;5;5;
71872;PMS5003;59745;52.924;-2.388;2022-07-30T14:16:49;5;5;
71872;PMS5003;59745;52.924;-2.388;2022-07-30T14:19:14;6;6;
71872;PMS5003;59745;52.924;-2.388;2022-07-30T14:21:39;6;4;
71872;PMS5003;59745;52.924;-2.388;2022-07-30T14:24:04;6;6;
71872;PMS5003;59745;52.924;-2.388;2022-07-30T14:26:29;5;5;
71872;PMS5003;59745;52.924;-2.388;2022-07-30T14:28:54;7;7;
71872;PMS5003;59745;52.924;-2.388;2022-07-30T14:31:19;8;7;
71872;PMS5003;59745;52.924;-2.388;2022-07-30T14:33:44;7;5;
71872;PMS5003;59745;52.924;-2.388;2022-07-30T14:36:09;5;5;
71872;PMS5003;59745;52.924;-2.388;2022-07-30T14:38:34;4;4;
71872;PMS5003;59745;52.924;-2.388;2022-07-30T14:40:59;4;4;
71872;PMS5003;59745;52.924;-2.388;2022-07-30T14:43:24;4;4;
71872;PMS5003;59745;52.924;-2.388;2022-07-30T14:45:49;5;4;
71872;PMS5003;59745;52.924;-2.388;2022-07-30T14:48:14;6;6;
71872;PMS5003;59745;52.924;-2.388;2022-07-30T14:50:39;6;6;
71872;PMS5003;59745;52.924;-2.388;2022-07-30T14:53:04;4;4;
71872;PMS5003;59745;52.924;-2.388;2022-07-30T14:55:29;7;5;
71872;PMS5003;59745;52.924;-2.388;2022-07-30T14:57:55;6;5;
71872;PMS5003;59745;52.924;-2.388;2022-07-30T15:00:20;6;5;
71872;PMS5003;59745;52.924;-2.388;2022-07-30T15:02:45;6;5;
71872;PMS5003;59745;52.924;-2.388;2022-07-30T15:05:10;4;4;
71872;PMS5003;59745;52.924;-2.388;2022-07-30T15:07:35;5;5;
71872;PMS5003;59745;52.924;-2.388;2022-07-30T15:10:00;5;4;
71872;PMS5003;59745;52.924;-2.388;2022-07-30T15:12:25;6;6;
71872;PMS5003;59745;52.924;-2.388;2022-07-30T15:14:50;4;4;
71872;PMS5003;59745;52.924;-2.388;2022-07-30T15:17:15;5;5;
71872;PMS5003;59745;52.924;-2.388;2022-07-30T15:19:40;5;5;
71872;PMS5003;59745;52.924;-2.388;2022-07-30T15:22:05;6;6;
71872;PMS5003;59745;52.924;-2.388;2022-07-30T15:24:30;6;5;
71872;PMS5003;59745;52.924;-2.388;2022-07-30T15:26:55;5;5;
71872;PMS5003;59745;52.924;-2.388;2022-07-30T15:29:20;4;4;
71872;PMS5003;59745;52.924;-2.388;2022-07-30T15:31:46;6;6;
71872;PMS5003;59745;52.924;-2.388;2022-07-30T15:34:10;7;7;
71872;PMS5003;59745;52.924;-2.388;2022-07-30T15:36:36;6;6;
71872;PMS5003;59745;52.924;-2.388;2022-07-30T15:39:01;8;8;
71872;PMS5003;59745;52.924;-2.388;2022-07-30T15:41:26;4;4;
71872;PMS5003;59745;52.924;-2.388;2022-07-30T15:43:51;6;5;
71872;PMS5003;59745;52.924;-2.388;2022-07-30T15:46:16;8;7;
71872;PMS5003;59745;52.924;-2.388;2022-07-30T15:48:41;8;8;
71872;PMS5003;59745;52.924;-2.388;2022-07-30T15:51:06;4;4;
71872;PMS5003;59745;52.924;-2.388;2022-07-30T15:53:31;7;6;
71872;PMS5003;59745;52.924;-2.388;2022-07-30T15:55:56;9;9;
71872;PMS5003;59745;52.924;-2.388;2022-07-30T15:58:21;5;5;
71872;PMS5003;59745;52.924;-2.388;2022-07-30T16:00:46;6;6;
71872;PMS5003;59745;52.924;-2.388;2022-07-30T16:03:12;9;8;
71872;PMS5003;59745;52.924;-2.388;2022-07-30T16:05:37;7;7;
71872;PMS5003;59745;52.924;-2.388;2022-07-30T16:08:02;7;7;
71872;PMS5003;59745;52.924;-2.388;2022-07-30T16:10:27;6;6;
71872;PMS5003;59745;52.924;-2.388;2022-07-30T16:12:52;8;6;
71872;PMS5003;59745;52.924;-2.388;2022-07-30T16:15:17;7;6;
71872;PMS5003;59745;52.924;-2.388;2022-07-30T16:17:42;5;5;
71872;PMS5003;59745;52.924;-2.388;2022-07-30T16:20:08;7;7;
71872;PMS5003;59745;52.924;-2.388;2022-07-30T16:22:32;7;7;
71872;PMS5003;59745;52.924;-2.388;2022-07-30T16:24:57;7;7;
71872;PMS5003;59745;52.924;-2.388;2022-07-30T16:27:22;7;7;
71872;PMS5003;59745;52.924;-2.388;2022-07-30T16:29:47;7;7;
71872;PMS5003;59745;52.924;-2.388;2022-07-30T16:32:13;8;8;
71872;PMS5003;59745;52.924;-2.388;2022-07-30T16:34:38;7;7;
71872;PMS5003;59745;52.924;-2.388;2022-07-30T16:37:03;8;7;
71872;PMS5003;59745;52.924;-2.388;2022-07-30T16:39:28;8;8;